Time;durP1;ratioP1;P1;durP2;ratioP2;P2;SDS_P1;SDS_P2;PMS_P1;PMS_P2;Temp;Humidity;BMP_temperature;BMP_pressure;BME280_temperature;BME280_humidity;BME280_pressure;Samples;Min_cycle;Max_cycle;Signal;HPM_P1;HPM_P2
2022/12/16 00:00:39;;;;;;;41.60;23.10;;;;;;;-2.37;100.00;100803.47;2080347;28;43444;-68
2022/12/16 00:01:40;;;;;;;44.75;23.63;;;;;;;-2.39;100.00;100811.31;2080211;28;36989;-67
2022/12/16 00:02:42;;;;;;;39.17;23.88;;;;;;;-2.40;100.00;100806.03;2081190;28;20149;-68
2022/12/16 00:03:52;;;;;;;41.08;24.08;;;;;;;-2.41;100.00;100806.88;2080311;28;37028;-67
2022/12/16 00:04:56;;;;;;;37.88;22.67;;;;;;;-2.41;100.00;100802.50;2080611;28;39437;-68
2022/12/16 00:06:00;;;;;;;35.63;22.40;;;;;;;-2.43;100.00;100809.44;2080941;28;20038;-68
2022/12/16 00:07:02;;;;;;;43.10;23.88;;;;;;;-2.44;100.00;100807.69;2080098;28;42120;-68
2022/12/16 00:08:04;;;;;;;42.40;24.08;;;;;;;-2.46;100.00;100804.13;2081522;28;20359;-67
2022/12/16 00:09:06;;;;;;;42.17;22.13;;;;;;;-2.45;100.00;100810.28;2080308;28;36550;-67
2022/12/16 00:10:08;;;;;;;41.75;23.85;;;;;;;-2.46;100.00;100804.13;2080712;28;34343;-67
2022/12/16 00:11:10;;;;;;;39.90;23.92;;;;;;;-2.47;100.00;100807.59;2080381;28;35016;-68
2022/12/16 00:12:12;;;;;;;43.83;22.83;;;;;;;-2.47;100.00;100815.47;2080548;28;41184;-67
2022/12/16 00:13:16;;;;;;;40.80;23.98;;;;;;;-2.49;100.00;100811.91;2080324;28;36028;-68
2022/12/16 00:14:17;;;;;;;41.33;23.13;;;;;;;-2.50;100.00;100811.00;2080477;28;39404;-68
2022/12/16 00:15:19;;;;;;;41.55;24.27;;;;;;;-2.48;100.00;100812.78;2080361;28;43940;-67
2022/12/16 00:16:21;;;;;;;41.17;24.02;;;;;;;-2.52;100.00;100811.81;2080215;28;40040;-67
2022/12/16 00:17:23;;;;;;;45.35;24.90;;;;;;;-2.50;100.00;100808.38;2081277;28;35371;-68
2022/12/16 00:18:24;;;;;;;39.13;24.63;;;;;;;-2.50;100.00;100818.00;2071554;28;36185;-66
2022/12/16 00:19:26;;;;;;;42.33;23.75;;;;;;;-2.48;100.00;100818.03;2063577;28;37928;-68
2022/12/16 00:20:30;;;;;;;40.72;23.67;;;;;;;-2.49;100.00;100817.16;2071276;28;42644;-68
2022/12/16 00:21:32;;;;;;;43.95;23.90;;;;;;;-2.50;100.00;100815.38;2080266;28;34740;-68
2022/12/16 00:22:33;;;;;;;40.92;24.17;;;;;;;-2.50;100.00;100813.63;2080351;28;36655;-68
2022/12/16 00:23:38;;;;;;;40.17;23.83;;;;;;;-2.50;100.00;100813.63;2080191;28;38256;-68
2022/12/16 00:24:39;;;;;;;42.72;24.70;;;;;;;-2.51;100.00;100813.63;2080818;28;20030;-68
2022/12/16 00:25:45;;;;;;;41.90;24.17;;;;;;;-2.51;100.00;100816.22;2079853;28;40531;-67
2022/12/16 00:26:51;;;;;;;43.10;24.67;;;;;;;-2.51;100.00;100813.63;2080201;28;37892;-68
2022/12/16 00:27:52;;;;;;;43.90;24.98;;;;;;;-2.53;100.00;100816.19;2081155;28;20034;-68
2022/12/16 00:28:59;;;;;;;43.30;25.23;;;;;;;-2.53;100.00;100810.94;2071491;28;38903;-67
2022/12/16 00:30:01;;;;;;;45.08;24.67;;;;;;;-2.52;100.00;100811.81;2070498;28;21037;-68
2022/12/16 00:31:05;;;;;;;42.17;24.48;;;;;;;-2.52;100.00;100822.31;2071461;28;39764;-67
2022/12/16 00:32:06;;;;;;;46.58;25.58;;;;;;;-2.55;100.00;100815.25;2071798;28;36446;-68
2022/12/16 00:33:11;;;;;;;44.55;26.38;;;;;;;-2.54;100.00;100816.13;2080522;28;34299;-68
2022/12/16 00:34:14;;;;;;;43.55;25.67;;;;;;;-2.55;100.00;100819.59;2080243;28;40698;-69
2022/12/16 00:35:16;;;;;;;41.85;25.55;;;;;;;-2.56;100.00;100821.34;2071149;28;37205;-67
2022/12/16 00:36:20;;;;;;;49.30;26.83;;;;;;;-2.55;100.00;100817.88;2072004;28;35869;-68
2022/12/16 00:37:22;;;;;;;46.90;26.70;;;;;;;-2.54;100.00;100821.38;2080283;28;34776;-68
2022/12/16 00:38:25;;;;;;;44.72;25.17;;;;;;;-2.55;100.00;100815.25;2080837;28;20120;-67
2022/12/16 00:39:27;;;;;;;47.40;26.23;;;;;;;-2.56;100.00;100815.22;2080346;28;39932;-68
2022/12/16 00:40:29;;;;;;;48.20;26.75;;;;;;;-2.55;100.00;100822.22;2079072;28;35240;-67
2022/12/16 00:41:33;;;;;;;47.42;26.42;;;;;;;-2.57;100.00;100823.91;2071724;28;23867;-68
2022/12/16 00:42:35;;;;;;;46.50;26.48;;;;;;;-2.58;100.00;100817.78;2071521;28;41058;-66
2022/12/16 00:43:38;;;;;;;43.50;26.20;;;;;;;-2.57;100.00;100826.53;2080524;28;31795;-67
2022/12/16 00:44:40;;;;;;;47.03;27.83;;;;;;;-2.59;100.00;100820.34;2080554;28;20849;-67
2022/12/16 00:45:44;;;;;;;49.63;28.42;;;;;;;-2.60;100.00;100822.09;2079670;28;40317;-67
2022/12/16 00:46:45;;;;;;;44.92;26.85;;;;;;;-2.60;100.00;100821.19;2079868;28;39107;-67
2022/12/16 00:47:49;;;;;;;47.45;27.67;;;;;;;-2.61;100.00;100825.56;2079980;28;37611;-67
2022/12/16 00:48:52;;;;;;;50.25;27.17;;;;;;;-2.60;100.00;100829.06;2070982;28;41900;-67
2022/12/16 00:49:54;;;;;;;47.28;27.90;;;;;;;-2.60;100.00;100821.19;2071987;28;38855;-67
2022/12/16 00:50:55;;;;;;;49.20;27.50;;;;;;;-2.60;100.00;100821.19;2079656;28;38001;-67
2022/12/16 00:51:57;;;;;;;50.40;28.70;;;;;;;-2.62;100.00;100825.50;2079009;28;41098;-67
2022/12/16 00:52:59;;;;;;;51.45;27.83;;;;;;;-2.63;100.00;100821.13;2071114;28;39416;-67
2022/12/16 00:54:00;;;;;;;48.67;26.23;;;;;;;-2.61;100.00;100822.06;2071980;28;23730;-67
2022/12/16 00:55:06;;;;;;;45.83;27.35;;;;;;;-2.60;100.00;100819.47;2079811;28;35007;-67
2022/12/16 00:56:10;;;;;;;49.20;28.95;;;;;;;-2.60;100.00;100822.09;2080282;28;40984;-67
2022/12/16 00:57:12;;;;;;;48.42;26.90;;;;;;;-2.60;100.00;100818.56;2080108;28;38484;-68
2022/12/16 00:58:14;;;;;;;51.72;29.88;;;;;;;-2.61;100.00;100815.06;2079759;28;23226;-67
2022/12/16 00:59:16;;;;;;;48.22;28.13;;;;;;;-2.58;100.00;100819.53;2079680;28;40836;-67
2022/12/16 01:00:18;;;;;;;49.15;28.20;;;;;;;-2.59;100.00;100821.22;2080839;28;20045;-68
2022/12/16 01:01:20;;;;;;;57.70;30.42;;;;;;;-2.58;100.00;100816.91;2079821;28;39562;-68
2022/12/16 01:02:21;;;;;;;47.22;27.52;;;;;;;-2.59;100.00;100812.50;2080098;28;37864;-67
2022/12/16 01:03:23;;;;;;;51.92;30.67;;;;;;;-2.60;100.00;100818.56;2080769;28;20234;-67
2022/12/16 01:04:25;;;;;;;54.10;29.55;;;;;;;-2.60;100.00;100819.47;2079921;28;40369;-66
2022/12/16 01:05:27;;;;;;;45.17;27.23;;;;;;;-2.59;100.00;100817.75;2079339;28;38045;-67
2022/12/16 01:06:29;;;;;;;50.13;28.08;;;;;;;-2.59;100.00;100825.59;2079369;28;23449;-67
2022/12/16 01:07:30;;;;;;;46.92;28.08;;;;;;;-2.59;100.00;100821.22;2079955;28;42338;-68
2022/12/16 01:08:32;;;;;;;47.50;28.98;;;;;;;-2.58;100.00;100822.16;2080704;28;20030;-68
2022/12/16 01:09:36;;;;;;;54.42;29.23;;;;;;;-2.59;100.00;100822.97;2079853;28;43383;-67
2022/12/16 01:10:38;;;;;;;49.80;28.52;;;;;;;-2.58;100.00;100820.41;2080212;28;35216;-67
2022/12/16 01:11:39;;;;;;;52.47;28.77;;;;;;;-2.56;100.00;100825.69;2080218;28;24684;-69
2022/12/16 01:12:43;;;;;;;52.83;28.55;;;;;;;-2.56;100.00;100828.31;2079868;28;39990;-67
2022/12/16 01:13:50;;;;;;;52.55;30.48;;;;;;;-2.55;100.00;100824.84;2079924;28;33642;-68
2022/12/16 01:14:51;;;;;;;53.05;29.83;;;;;;;-2.56;100.00;100817.84;2080153;28;41135;-67
2022/12/16 01:15:53;;;;;;;51.75;28.73;;;;;;;-2.56;100.00;100823.06;2071052;28;39861;-67
2022/12/16 01:16:55;;;;;;;51.20;28.85;;;;;;;-2.55;100.00;100827.44;2071442;28;37380;-67
2022/12/16 01:17:59;;;;;;;53.03;28.45;;;;;;;-2.56;100.00;100826.56;2079876;28;37460;-68
2022/12/16 01:19:01;;;;;;;50.75;29.70;;;;;;;-2.55;100.00;100825.75;2080280;28;40578;-67
2022/12/16 01:20:03;;;;;;;46.92;27.63;;;;;;;-2.57;100.00;100827.41;2070852;28;40911;-67
2022/12/16 01:21:07;;;;;;;51.22;29.13;;;;;;;-2.56;100.00;100831.81;2071255;28;40575;-69
2022/12/16 01:22:10;;;;;;;52.72;29.25;;;;;;;-2.57;100.00;100830.03;2070514;28;36297;-69
2022/12/16 01:23:12;;;;;;;53.15;29.00;;;;;;;-2.59;100.00;100833.47;2071311;28;39623;-68
2022/12/16 01:24:14;;;;;;;53.38;29.52;;;;;;;-2.57;100.00;100840.50;2079816;28;39436;-68
2022/12/16 01:25:16;;;;;;;51.67;28.65;;;;;;;-2.57;100.00;100835.28;2080199;28;28201;-69
2022/12/16 01:26:18;;;;;;;51.38;28.70;;;;;;;-2.60;100.00;100835.22;2079673;28;37897;-67
2022/12/16 01:27:19;;;;;;;49.00;29.23;;;;;;;-2.58;100.00;100837.88;2080154;28;36853;-67
2022/12/16 01:28:21;;;;;;;52.10;29.23;;;;;;;-2.59;100.00;100836.97;2079450;28;40593;-67
2022/12/16 01:29:23;;;;;;;48.30;27.88;;;;;;;-2.60;100.00;100837.81;2080003;28;37353;-67
2022/12/16 01:30:25;;;;;;;48.38;29.05;;;;;;;-2.60;100.00;100832.59;2078370;28;38768;-68
2022/12/16 01:31:26;;;;;;;49.60;27.25;;;;;;;-2.60;100.00;100834.28;2079584;28;39042;-68
2022/12/16 01:32:28;;;;;;;50.15;29.08;;;;;;;-2.62;100.00;100830.75;2079813;28;40589;-68
2022/12/16 01:33:31;;;;;;;51.58;29.88;;;;;;;-2.61;100.00;100837.78;2080506;28;26366;-68
2022/12/16 01:34:33;;;;;;;53.40;28.88;;;;;;;-2.64;100.00;100833.31;2070895;28;37054;-68
2022/12/16 01:35:35;;;;;;;54.08;29.00;;;;;;;-2.63;100.00;100834.22;2071731;28;27708;-67
2022/12/16 01:36:56;;;;;;;53.22;28.25;;;;;;;-2.65;100.00;100831.56;2080020;28;37009;-67
2022/12/16 01:37:57;;;;;;;54.13;30.00;;;;;;;-2.65;100.00;100833.31;2080291;28;29579;-67
2022/12/16 01:38:59;;;;;;;49.80;28.42;;;;;;;-2.64;100.00;100845.53;2078697;28;37600;-67
2022/12/16 01:40:02;;;;;;;46.30;26.23;;;;;;;-2.64;100.00;100840.31;2080303;28;27419;-67
2022/12/16 01:41:04;;;;;;;53.58;27.98;;;;;;;-2.66;100.00;100842.00;2079975;28;35239;-67
2022/12/16 01:42:17;;;;;;;55.10;30.13;;;;;;;-2.65;100.00;100846.41;2079473;28;38771;-67
2022/12/16 01:43:24;;;;;;;50.40;28.33;;;;;;;-2.65;100.00;100847.28;2079667;28;39531;-66
2022/12/16 01:44:26;;;;;;;55.88;29.67;;;;;;;-2.64;100.00;100845.53;2079862;28;36064;-67
2022/12/16 01:45:31;;;;;;;49.45;29.58;;;;;;;-2.64;100.00;100850.78;2079759;28;36938;-66
2022/12/16 01:46:37;;;;;;;46.80;27.20;;;;;;;-2.63;100.00;100847.34;2080512;28;20041;-67
2022/12/16 01:47:39;;;;;;;46.40;27.75;;;;;;;-2.63;100.00;100845.59;2070685;28;42210;-67
2022/12/16 01:48:56;;;;;;;49.25;28.15;;;;;;;-2.64;100.00;100849.03;2071991;28;35737;-67
2022/12/16 01:50:03;;;;;;;46.25;27.48;;;;;;;-2.64;100.00;100850.78;2079885;28;35388;-67
2022/12/16 01:51:12;;;;;;;44.22;25.10;;;;;;;-2.64;100.00;100848.16;2080134;28;33633;-68
2022/12/16 01:52:21;;;;;;;35.83;20.00;;;;;;;-2.64;100.00;100850.78;2070872;28;38772;-67
2022/12/16 01:53:23;;;;;;;50.83;27.70;;;;;;;-2.64;100.00;100853.41;2073511;28;34822;-67
2022/12/16 01:54:36;;;;;;;45.40;26.83;;;;;;;-2.65;100.00;100854.25;2070657;28;20035;-68
2022/12/16 01:55:45;;;;;;;46.85;27.45;;;;;;;-2.64;100.00;100858.66;2064408;28;36934;-67
2022/12/16 01:56:59;;;;;;;54.80;28.17;;;;;;;-2.67;100.00;100853.31;2065731;28;27687;-67
2022/12/16 01:58:19;;;;;;;53.00;28.92;;;;;;;-2.66;100.00;100861.22;2073521;28;31496;-67
2022/12/16 01:59:24;;;;;;;51.78;28.52;;;;;;;-2.65;100.00;100864.75;2079407;28;41668;-67
2022/12/16 02:00:28;;;;;;;52.38;29.10;;;;;;;-2.66;100.00;100863.84;2080406;28;31718;-67
2022/12/16 02:01:30;;;;;;;51.22;29.02;;;;;;;-2.62;100.00;100865.72;2080375;28;20112;-67
2022/12/16 02:02:34;;;;;;;53.70;31.23;;;;;;;-2.61;100.00;100874.47;2080293;28;20824;-65
2022/12/16 02:03:37;;;;;;;55.38;29.15;;;;;;;-2.63;100.00;100871.78;2079497;28;20053;-67
2022/12/16 02:05:19;;;;;;;49.70;28.17;;;;;;;-2.62;100.00;100875.28;2079159;28;35938;-67
2022/12/16 02:06:04;;;;;;;54.90;28.75;;;;;;;-2.61;100.00;100869.22;2079992;28;39621;-67
2022/12/16 02:07:06;;;;;;;58.45;31.08;;;;;;;-2.61;100.00;100875.34;2070413;28;37541;-67
2022/12/16 02:08:08;;;;;;;51.30;28.98;;;;;;;-2.60;100.00;100873.59;2071379;28;38948;-67
2022/12/16 02:09:14;;;;;;;52.75;29.30;;;;;;;-2.60;100.00;100873.59;2078828;28;36616;-67
2022/12/16 02:10:15;;;;;;;51.03;28.27;;;;;;;-2.60;100.00;100871.91;2080029;28;24498;-67
2022/12/16 02:11:48;;;;;;;45.20;26.23;;;;;;;-2.59;100.00;100875.41;2078965;28;37126;-67
2022/12/16 02:13:22;;;;;;;47.42;26.73;;;;;;;-2.60;100.00;100876.22;2080302;28;20038;-67
2022/12/16 02:14:28;;;;;;;45.53;25.90;;;;;;;-2.63;100.00;100876.16;2070527;28;42285;-67
2022/12/16 02:16:09;;;;;;;55.17;28.63;;;;;;;-2.61;100.00;100874.47;2071706;28;20050;-67
2022/12/16 02:17:29;;;;;;;50.53;27.73;;;;;;;-2.62;100.00;100876.22;2076525;28;41945;-67
2022/12/16 02:18:54;;;;;;;53.40;28.77;;;;;;;-2.60;100.00;100878.84;2079430;28;39738;-67
2022/12/16 02:20:36;;;;;;;52.72;27.75;;;;;;;-2.59;100.00;100878.00;2080044;28;33418;-67
2022/12/16 02:22:07;;;;;;;50.05;27.20;;;;;;;-2.59;100.00;100878.00;2070888;28;21017;-67
2022/12/16 02:23:41;;;;;;;49.17;26.65;;;;;;;-2.61;100.00;100870.09;2079377;28;39710;-67
2022/12/16 02:25:22;;;;;;;56.40;28.02;;;;;;;-2.60;100.00;100873.59;2070514;28;36780;-67
2022/12/16 02:27:23;;;;;;;49.20;27.27;;;;;;;-2.59;100.00;100875.41;2079758;28;42591;-67
2022/12/16 02:28:34;;;;;;;;;;;;;;;-2.59;100.00;100872.78;2028869;29;38015;-67
2022/12/16 02:30:03;;;;;;;46.38;25.70;;;;;;;-2.57;100.00;100871.09;2062633;28;43428;-67
2022/12/16 02:31:25;;;;;;;51.88;27.75;;;;;;;-2.58;100.00;100874.56;2062905;28;37391;-67
2022/12/16 02:33:15;;;;;;;53.95;28.17;;;;;;;-2.56;100.00;100870.25;2063179;28;44234;-67
2022/12/16 02:34:29;;;;;;;53.85;28.33;;;;;;;-2.57;100.00;100874.59;2062034;28;40130;-67
2022/12/16 02:35:50;;;;;;;42.85;23.88;;;;;;;-2.55;100.00;100872.94;2054856;28;24896;-67
2022/12/16 02:37:21;;;;;;;46.00;25.30;;;;;;;-2.54;100.00;100871.19;2058711;28;39042;-66
2022/12/16 02:38:29;;;;;;;;;;;;;;;-2.56;100.00;100873.75;2055139;28;39956;-67
2022/12/16 02:39:51;;;;;;;54.30;27.20;;;;;;;-2.56;100.00;100875.50;2060127;28;19933;-66
2022/12/16 02:41:04;;;;;;;49.03;27.20;;;;;;;-2.56;100.00;100873.75;2068348;28;20047;-67
2022/12/16 02:42:24;;;;;;;50.15;26.88;;;;;;;-2.57;100.00;100871.09;2070569;28;40471;-66
2022/12/16 02:44:01;;;;;;;47.38;26.52;;;;;;;-2.57;100.00;100871.97;2070903;28;25628;-67
2022/12/16 02:45:27;;;;;;;46.33;25.63;;;;;;;-2.57;100.00;100877.22;2063331;28;22499;-67
2022/12/16 02:46:34;;;;;;;56.17;28.38;;;;;;;-2.59;100.00;100873.66;2060608;28;38213;-66
2022/12/16 02:47:35;;;;;;;54.95;29.15;;;;;;;-2.57;100.00;100878.94;2057663;28;43204;-67
2022/12/16 02:48:37;;;;;;;51.33;28.15;;;;;;;-2.58;100.00;100874.56;2063567;28;39285;-67
2022/12/16 02:49:51;;;;;;;48.97;28.58;;;;;;;-2.59;100.00;100878.91;2071254;28;37481;-67
2022/12/16 02:50:53;;;;;;;50.50;29.77;;;;;;;-2.59;100.00;100876.28;2071288;28;43427;-67
2022/12/16 02:51:59;;;;;;;49.10;26.88;;;;;;;-2.58;100.00;100874.56;2071015;28;38135;-67
2022/12/16 02:53:02;;;;;;;55.95;28.55;;;;;;;-2.58;100.00;100880.69;2071364;28;40243;-67
2022/12/16 02:54:08;;;;;;;55.63;30.35;;;;;;;-2.58;100.00;100877.19;2070463;28;36996;-67
2022/12/16 02:55:10;;;;;;;50.42;28.75;;;;;;;-2.56;100.00;100872.88;2062999;28;30969;-67
2022/12/16 02:56:37;;;;;;;52.03;29.38;;;;;;;-2.56;100.00;100881.63;2062883;28;38535;-67
2022/12/16 02:58:09;;;;;;;59.78;28.38;;;;;;;-2.56;100.00;100880.75;2071220;28;40501;-67
2022/12/16 02:59:37;;;;;;;49.72;27.00;;;;;;;-2.54;100.00;100887.78;2073965;28;38204;-68
2022/12/16 03:01:04;;;;;;;52.88;28.77;;;;;;;-2.53;100.00;100880.81;2074554;28;39463;-69
2022/12/16 03:02:32;;;;;;;54.53;28.67;;;;;;;-2.53;100.00;100883.44;2071375;28;37921;-69
2022/12/16 03:03:53;;;;;;;49.17;26.38;;;;;;;-2.52;100.00;100885.22;2071047;28;42819;-67
2022/12/16 03:05:05;;;;;;;51.30;27.35;;;;;;;-2.51;100.00;100894.88;2070538;28;39330;-69
2022/12/16 03:06:13;;;;;;;52.38;27.92;;;;;;;-2.50;100.00;100891.38;2070320;28;43749;-66
2022/12/16 03:07:17;;;;;;;57.45;28.77;;;;;;;-2.50;100.00;100897.50;2062696;28;39098;-67
2022/12/16 03:08:34;;;;;;;51.67;27.80;;;;;;;-2.50;100.00;100896.63;2054634;28;42436;-67
2022/12/16 03:09:38;;;;;;;58.47;27.55;;;;;;;-2.52;100.00;100896.59;2070524;28;40727;-67
2022/12/16 03:10:49;;;;;;;63.03;31.02;;;;;;;-2.51;100.00;100903.63;2070336;28;37113;-67
2022/12/16 03:11:54;;;;;;;52.17;28.23;;;;;;;-2.49;100.00;100901.03;2065027;28;21087;-67
2022/12/16 03:13:00;;;;;;;52.28;29.23;;;;;;;-2.50;100.00;100896.63;2063622;28;20869;-68
2022/12/16 03:14:05;;;;;;;47.47;27.00;;;;;;;-2.50;100.00;100904.50;2071705;28;38355;-68
2022/12/16 03:15:07;;;;;;;58.92;27.70;;;;;;;-2.50;100.00;100900.13;2061077;28;31199;-68
2022/12/16 03:16:12;;;;;;;55.40;29.38;;;;;;;-2.48;100.00;100896.69;2063572;28;37815;-68
2022/12/16 03:17:17;;;;;;;54.45;28.25;;;;;;;-2.50;100.00;100900.13;2070503;28;38596;-67
2022/12/16 03:18:22;;;;;;;55.58;29.98;;;;;;;-2.48;100.00;100901.91;2064309;28;20066;-68
2022/12/16 03:19:25;;;;;;;55.97;29.88;;;;;;;-2.49;100.00;100903.66;2064663;28;38642;-67
2022/12/16 03:20:39;;;;;;;54.60;28.42;;;;;;;-2.50;100.00;100894.88;2072608;28;34562;-69
2022/12/16 03:22:15;;;;;;;62.10;29.42;;;;;;;-2.51;100.00;100906.25;2071572;28;39231;-68
2022/12/16 03:23:25;;;;;;;56.88;27.23;;;;;;;-2.50;100.00;100897.50;2063192;28;39563;-69
2022/12/16 03:24:28;;;;;;;;;;;;;;;-2.52;100.00;100895.69;2077081;28;36946;-69
2022/12/16 03:25:34;;;;;;;52.00;27.02;;;;;;;-2.52;100.00;100901.81;2080373;28;41970;-68
2022/12/16 03:27:11;;;;;;;53.50;27.10;;;;;;;-2.53;100.00;100904.41;2081252;28;20958;-68
2022/12/16 03:28:37;;;;;;;57.03;29.25;;;;;;;-2.54;100.00;100903.50;2081186;28;41408;-67
2022/12/16 03:30:10;;;;;;;63.90;30.02;;;;;;;-2.52;100.00;100912.31;2079985;28;30891;-68
2022/12/16 03:31:36;;;;;;;56.00;28.33;;;;;;;-2.52;100.00;100916.66;2064336;28;20820;-67
2022/12/16 03:32:50;;;;;;;62.38;27.88;;;;;;;-2.53;100.00;100910.56;2064442;28;40830;-68
2022/12/16 03:34:04;;;;;;;59.63;29.98;;;;;;;-2.53;100.00;100920.13;2064544;28;20904;-68
2022/12/16 03:35:38;;;;;;;65.85;30.45;;;;;;;-2.53;100.00;100920.13;2055912;28;37120;-68
2022/12/16 03:36:42;;;;;;;60.92;29.10;;;;;;;-2.53;100.00;100915.78;2061943;28;34463;-68
2022/12/16 03:37:48;;;;;;;61.05;26.67;;;;;;;-2.52;100.00;100919.28;2055219;28;43651;-66
2022/12/16 03:38:50;;;;;;;59.78;29.80;;;;;;;-2.52;100.00;100917.56;2056873;28;36539;-68
2022/12/16 03:39:56;;;;;;;76.05;32.15;;;;;;;-2.52;100.00;100916.66;2063224;28;37177;-66
2022/12/16 03:41:00;;;;;;;73.88;31.55;;;;;;;-2.50;100.00;100912.34;2063873;28;40619;-67
2022/12/16 03:42:03;;;;;;;83.60;32.60;;;;;;;-2.52;100.00;100911.44;2063160;28;40997;-67
2022/12/16 03:43:05;;;;;;;69.55;30.20;;;;;;;-2.50;100.00;100917.59;2055608;28;36325;-68
2022/12/16 03:44:08;;;;;;;73.97;29.83;;;;;;;-2.50;100.00;100922.84;2057261;28;37596;-67
2022/12/16 03:45:23;;;;;;;87.10;33.08;;;;;;;-2.52;100.00;100927.16;2071675;28;39559;-68
2022/12/16 03:46:25;;;;;;;83.20;31.90;;;;;;;-2.50;100.00;100930.72;2071950;28;20047;-67
2022/12/16 03:47:28;;;;;;;81.47;31.50;;;;;;;-2.52;100.00;100925.41;2063682;28;39907;-67
2022/12/16 03:48:30;;;;;;;73.53;31.05;;;;;;;-2.51;100.00;100928.94;2055876;28;32270;-67
2022/12/16 03:49:31;;;;;;;86.13;33.80;;;;;;;-2.50;100.00;100925.47;2066028;28;32404;-67
2022/12/16 03:50:34;;;;;;;102.88;34.42;;;;;;;-2.50;100.00;100930.72;2071228;28;36733;-67
2022/12/16 03:51:36;;;;;;;90.55;34.13;;;;;;;-2.50;100.00;100926.34;2072826;28;20880;-69
2022/12/16 03:52:38;;;;;;;94.13;34.05;;;;;;;-2.50;100.00;100931.59;2080973;28;24792;-67
2022/12/16 03:53:39;;;;;;;68.05;28.55;;;;;;;-2.49;100.00;100924.63;2080743;28;38254;-67
2022/12/16 03:54:41;;;;;;;80.05;29.13;;;;;;;-2.48;100.00;100931.63;2080039;28;39312;-67
2022/12/16 03:55:43;;;;;;;87.65;31.90;;;;;;;-2.47;100.00;100932.56;2080552;28;39938;-67
2022/12/16 03:56:45;;;;;;;93.18;33.47;;;;;;;-2.46;100.00;100936.94;2080367;28;36030;-67
2022/12/16 03:57:46;;;;;;;84.35;33.40;;;;;;;-2.47;100.00;100932.56;2080687;28;34131;-67
2022/12/16 03:58:48;;;;;;;96.13;34.22;;;;;;;-2.47;100.00;100932.56;2079722;28;39131;-68
2022/12/16 03:59:50;;;;;;;103.72;35.03;;;;;;;-2.48;100.00;100934.25;2081500;28;20838;-68
2022/12/16 04:00:52;;;;;;;97.53;35.78;;;;;;;-2.47;100.00;100935.16;2080292;28;34288;-68
2022/12/16 04:01:53;;;;;;;98.80;35.92;;;;;;;-2.47;100.00;100928.19;2079536;28;37778;-70
2022/12/16 04:02:55;;;;;;;109.97;36.50;;;;;;;-2.47;100.00;100933.44;2080289;28;33032;-67
2022/12/16 04:03:59;;;;;;;107.03;35.65;;;;;;;-2.46;100.00;100940.44;2080083;28;39294;-68
2022/12/16 04:05:03;;;;;;;103.22;36.05;;;;;;;-2.46;100.00;100943.06;2080146;28;35591;-67
2022/12/16 04:06:05;;;;;;;96.97;35.70;;;;;;;-2.48;100.00;100939.50;2072074;28;28541;-67
2022/12/16 04:07:19;;;;;;;108.78;35.72;;;;;;;-2.45;100.00;100942.22;2071569;28;44525;-68
2022/12/16 04:08:21;;;;;;;102.85;35.78;;;;;;;-2.46;100.00;100947.41;2080813;28;38412;-66
2022/12/16 04:09:22;;;;;;;91.32;34.50;;;;;;;-2.47;100.00;100949.16;2080514;28;35051;-67
2022/12/16 04:24:18;;;;;;;92.05;33.78;;;;;;;-2.44;100.00;100945.72;2080067;28;41985;-67
2022/12/16 04:25:35;;;;;;;86.00;33.67;;;;;;;-2.43;100.00;100953.63;2080691;28;39628;-67
2022/12/16 04:27:59;;;;;;;87.35;34.17;;;;;;;-2.45;100.00;100955.34;2071997;28;23577;-68
2022/12/16 04:29:01;;;;;;;85.78;33.65;;;;;;;-2.43;100.00;100955.38;2074760;28;37092;-68
2022/12/16 04:30:20;;;;;;;96.43;34.28;;;;;;;-2.44;100.00;100957.13;2077783;28;43053;-68
2022/12/16 04:31:21;;;;;;;75.07;28.80;;;;;;;-2.44;100.00;100957.13;2080960;28;26274;-68
2022/12/16 04:32:23;;;;;;;88.22;33.58;;;;;;;-2.44;100.00;100959.75;2080696;28;20042;-68
2022/12/16 04:34:45;;;;;;;91.38;35.20;;;;;;;-2.43;100.00;100956.25;2080634;28;38154;-67
